createdAt,value
2018-09-12T00:01:58.280Z,22.90
2018-09-12T00:04:27.458Z,23.18
2018-09-12T00:06:56.674Z,23.30
2018-09-12T00:09:26.208Z,22.77
2018-09-12T00:11:55.212Z,22.87
2018-09-12T00:14:24.206Z,23.04
2018-09-12T00:16:53.427Z,22.61
2018-09-12T00:19:22.432Z,22.76
2018-09-12T00:21:51.442Z,22.66
2018-09-12T00:24:20.423Z,22.80
2018-09-12T00:26:49.407Z,22.81
2018-09-12T00:29:18.436Z,22.85
2018-09-12T00:31:47.463Z,22.41
2018-09-12T00:34:16.741Z,22.64
2018-09-12T00:36:45.898Z,22.08
2018-09-12T00:39:14.919Z,22.08
2018-09-12T00:41:44.158Z,22.51
2018-09-12T00:44:13.155Z,22.48
2018-09-12T00:46:42.156Z,22.44
2018-09-12T00:49:11.174Z,22.12
2018-09-12T00:51:40.482Z,22.34
2018-09-12T00:54:09.909Z,22.41
2018-09-12T00:56:38.928Z,22.31
2018-09-12T00:59:07.955Z,22.41
2018-09-12T01:01:37.084Z,22.40
2018-09-12T01:04:06.250Z,22.48
2018-09-12T01:06:35.660Z,22.40
2018-09-12T01:09:06.012Z,22.36
2018-09-12T01:11:35.209Z,22.39
2018-09-12T01:14:04.483Z,22.19
2018-09-12T01:16:34.974Z,22.27
2018-09-12T01:19:11.314Z,22.20
2018-09-12T01:21:40.335Z,22.08
2018-09-12T01:24:09.320Z,22.20
2018-09-12T01:26:38.577Z,21.99
2018-09-12T01:29:07.634Z,21.99
2018-09-12T01:31:36.655Z,22.00
2018-09-12T01:34:05.721Z,22.06
2018-09-12T01:36:35.262Z,22.11
2018-09-12T01:39:05.467Z,22.23
2018-09-12T01:41:34.520Z,22.35
2018-09-12T01:44:03.581Z,22.21
2018-09-12T01:46:33.191Z,22.01
2018-09-12T01:49:02.183Z,22.20
2018-09-12T01:51:31.583Z,22.12
2018-09-12T01:54:00.633Z,21.28
2018-09-12T01:56:29.658Z,21.71
2018-09-12T01:58:58.722Z,21.75
2018-09-12T02:01:27.749Z,22.07
2018-09-12T02:03:56.761Z,21.86
2018-09-12T02:06:25.772Z,22.10
2018-09-12T02:08:54.982Z,22.06
2018-09-12T02:11:24.009Z,21.69
2018-09-12T02:13:52.996Z,22.06
2018-09-12T02:16:21.997Z,22.09
2018-09-12T02:18:51.229Z,21.76
2018-09-12T02:21:20.535Z,21.77
2018-09-12T02:23:49.632Z,21.58
2018-09-12T02:26:18.658Z,21.87
2018-09-12T02:28:47.658Z,22.05
2018-09-12T02:31:16.669Z,21.71
2018-09-12T02:33:45.664Z,21.77
2018-09-12T02:36:20.032Z,21.77
2018-09-12T02:38:49.295Z,21.59
2018-09-12T02:41:18.524Z,21.23
2018-09-12T02:43:47.772Z,21.58
2018-09-12T02:46:16.867Z,21.03
2018-09-12T02:48:46.110Z,21.68
2018-09-12T02:51:15.126Z,21.67
2018-09-12T02:53:44.270Z,21.34
2018-09-12T02:56:13.453Z,21.52
2018-09-12T02:58:42.804Z,21.59
2018-09-12T03:01:11.830Z,21.94
2018-09-12T03:03:40.840Z,21.77
2018-09-12T03:06:09.918Z,21.34
2018-09-12T03:08:39.058Z,21.56
2018-09-12T03:11:08.381Z,21.47
2018-09-12T03:13:37.379Z,21.56
2018-09-12T03:16:06.624Z,21.47
2018-09-12T03:18:36.166Z,21.27
2018-09-12T03:21:05.446Z,21.69
2018-09-12T03:23:34.461Z,21.59
2018-09-12T03:26:03.462Z,21.57
2018-09-12T03:28:32.500Z,21.67
2018-09-12T03:31:01.515Z,21.83
2018-09-12T03:33:31.150Z,21.98
2018-09-12T03:36:00.429Z,21.74
2018-09-12T03:38:29.628Z,21.85
2018-09-12T03:40:59.497Z,21.63
2018-09-12T03:43:28.674Z,21.70
2018-09-12T03:45:57.879Z,21.01
2018-09-12T03:48:27.301Z,21.31
2018-09-12T03:50:56.303Z,21.44
2018-09-12T03:53:25.435Z,20.72
2018-09-12T03:55:54.410Z,21.32
2018-09-12T03:58:23.419Z,20.65
2018-09-12T04:00:52.495Z,21.39
2018-09-12T04:03:21.621Z,21.45
2018-09-12T04:05:50.626Z,21.46
2018-09-12T04:08:19.688Z,21.34
2018-09-12T04:10:48.764Z,21.40
2018-09-12T04:13:18.026Z,21.62
2018-09-12T04:15:47.045Z,21.45
2018-09-12T04:18:16.066Z,21.49
2018-09-12T04:20:45.263Z,21.06
2018-09-12T04:23:14.328Z,21.27
2018-09-12T04:25:43.426Z,21.32
2018-09-12T04:28:12.449Z,21.20
2018-09-12T04:30:41.922Z,20.38
2018-09-12T04:33:11.352Z,20.76
2018-09-12T04:35:40.436Z,21.36
2018-09-12T04:38:09.720Z,20.87
2018-09-12T04:40:38.952Z,21.08
2018-09-12T04:43:08.318Z,20.71
2018-09-12T04:45:37.729Z,21.27
2018-09-12T04:48:06.843Z,21.14
2018-09-12T04:50:35.878Z,21.43
2018-09-12T04:53:04.877Z,21.09
2018-09-12T04:55:33.936Z,20.89
2018-09-12T04:58:03.003Z,21.19
2018-09-12T05:00:32.223Z,20.79
2018-09-12T05:03:01.524Z,21.27
2018-09-12T05:05:30.848Z,21.40
2018-09-12T05:07:59.967Z,21.20
2018-09-12T05:10:29.102Z,20.92
2018-09-12T05:12:58.268Z,21.14
2018-09-12T05:15:27.683Z,21.36
2018-09-12T05:17:56.699Z,21.39
2018-09-12T05:20:25.917Z,21.30
2018-09-12T05:22:55.275Z,21.12
2018-09-12T05:25:24.299Z,21.30
2018-09-12T05:27:53.575Z,21.35
2018-09-12T05:30:22.730Z,21.56
2018-09-12T05:32:51.944Z,21.85
2018-09-12T05:35:21.183Z,21.72
2018-09-12T05:37:50.178Z,21.38
2018-09-12T05:40:19.178Z,21.20
2018-09-12T05:42:48.183Z,21.09
2018-09-12T05:45:17.259Z,21.65
2018-09-12T05:47:46.275Z,21.97
2018-09-12T05:50:15.393Z,21.99
2018-09-12T05:52:44.991Z,22.08
2018-09-12T05:55:14.369Z,22.11
2018-09-12T05:57:43.529Z,22.21
2018-09-12T06:00:12.527Z,22.20
2018-09-12T06:02:41.527Z,22.04
2018-09-12T06:05:10.553Z,21.90
2018-09-12T06:07:39.955Z,22.29
2018-09-12T06:10:08.946Z,22.07
2018-09-12T06:12:38.040Z,22.27
2018-09-12T06:15:07.091Z,22.51
2018-09-12T06:17:36.157Z,22.63
2018-09-12T06:20:05.376Z,22.30
2018-09-12T06:22:35.002Z,22.82
2018-09-12T06:25:04.043Z,22.96
2018-09-12T06:27:33.375Z,22.99
2018-09-12T06:30:02.737Z,23.01
2018-09-12T06:32:32.207Z,22.79
2018-09-12T06:35:01.239Z,22.74
2018-09-12T06:37:30.311Z,23.06
2018-09-12T06:39:59.348Z,23.05
2018-09-12T06:42:28.556Z,23.31
2018-09-12T06:44:57.562Z,23.14
2018-09-12T06:47:27.116Z,23.21
2018-09-12T06:49:56.244Z,22.89
2018-09-12T06:52:25.571Z,23.31
2018-09-12T06:54:54.859Z,23.63
2018-09-12T06:57:24.329Z,23.81
2018-09-12T06:59:53.543Z,23.66
2018-09-12T07:02:22.559Z,23.75
2018-09-12T07:04:52.578Z,23.47
2018-09-12T07:07:21.648Z,23.38
2018-09-12T07:09:50.654Z,23.68
2018-09-12T07:12:19.668Z,24.09
2018-09-12T07:14:48.716Z,23.27
2018-09-12T07:17:17.767Z,23.81
2018-09-12T07:19:46.924Z,24.10
2018-09-12T07:22:15.922Z,24.12
2018-09-12T07:24:46.006Z,24.15
2018-09-12T07:27:15.171Z,24.37
2018-09-12T07:29:44.216Z,24.02
2018-09-12T07:32:13.667Z,23.83
2018-09-12T07:34:42.806Z,24.23
2018-09-12T07:37:11.894Z,24.34
2018-09-12T07:39:41.308Z,24.56
2018-09-12T07:42:10.588Z,24.72
2018-09-12T07:44:39.632Z,24.46
2018-09-12T07:47:09.786Z,24.55
2018-09-12T07:49:39.187Z,24.39
2018-09-12T07:52:08.436Z,24.36
2018-09-12T07:54:37.404Z,24.66
2018-09-12T07:57:06.464Z,24.92
2018-09-12T07:59:35.502Z,24.86
2018-09-12T08:02:04.599Z,25.33
2018-09-12T08:04:33.902Z,25.64
2018-09-12T08:07:02.953Z,25.35
2018-09-12T08:09:32.938Z,25.52
2018-09-12T08:12:01.988Z,25.70
2018-09-12T08:14:31.264Z,25.75
2018-09-12T08:17:00.386Z,25.80
2018-09-12T08:19:29.416Z,25.98
2018-09-12T08:21:58.859Z,25.72
2018-09-12T08:24:27.931Z,25.68
2018-09-12T08:26:56.936Z,25.86
2018-09-12T08:29:25.987Z,25.72
2018-09-12T08:31:55.062Z,25.38
2018-09-12T08:34:24.223Z,26.02
2018-09-12T08:36:53.229Z,25.94
2018-09-12T08:39:22.218Z,25.54
2018-09-12T08:41:51.222Z,25.47
2018-09-12T08:44:20.219Z,25.62
2018-09-12T08:46:49.247Z,25.96
2018-09-12T08:49:18.248Z,26.21
2018-09-12T08:51:47.264Z,26.03
2018-09-12T08:54:16.322Z,26.34
2018-09-12T08:56:45.445Z,26.23
2018-09-12T08:59:14.671Z,26.40
2018-09-12T09:01:43.736Z,26.21
2018-09-12T09:04:12.769Z,26.13
2018-09-12T09:06:41.767Z,26.50
2018-09-12T09:09:11.900Z,26.25
2018-09-12T09:11:40.894Z,26.21
2018-09-12T09:14:09.883Z,26.46
2018-09-12T09:16:38.953Z,26.24
2018-09-12T09:19:08.232Z,26.72
2018-09-12T09:21:37.284Z,26.37
2018-09-12T09:24:06.532Z,26.71
2018-09-12T09:26:35.608Z,26.43
2018-09-12T09:29:05.171Z,26.44
2018-09-12T09:31:34.279Z,26.56
2018-09-12T09:34:03.272Z,26.64
2018-09-12T09:36:32.270Z,26.71
2018-09-12T09:39:01.529Z,26.29
2018-09-12T09:41:30.776Z,26.66
2018-09-12T09:44:00.166Z,26.94
2018-09-12T09:46:29.436Z,27.01
2018-09-12T09:48:58.726Z,26.74
2018-09-12T09:51:28.059Z,26.78
2018-09-12T09:53:57.185Z,26.60
2018-09-12T09:56:26.264Z,26.60
2018-09-12T09:58:55.316Z,26.73
2018-09-12T10:01:29.566Z,26.99
2018-09-12T10:05:04.490Z,27.09
2018-09-12T10:07:38.797Z,27.21
2018-09-12T10:10:08.160Z,27.33
2018-09-12T10:12:37.441Z,27.12
2018-09-12T10:15:07.044Z,26.54
2018-09-12T10:17:36.138Z,26.88
2018-09-12T10:20:05.217Z,27.14
2018-09-12T10:22:34.428Z,27.40
2018-09-12T10:25:03.437Z,27.29
2018-09-12T10:27:32.999Z,27.66
2018-09-12T10:30:02.019Z,27.24
2018-09-12T10:32:31.011Z,27.22
2018-09-12T10:35:00.043Z,27.68
2018-09-12T10:37:29.020Z,27.66
2018-09-12T10:39:58.142Z,27.13
2018-09-12T10:42:27.131Z,27.43
2018-09-12T10:44:56.164Z,27.27
2018-09-12T10:47:25.164Z,27.40
2018-09-12T10:49:54.445Z,27.36
2018-09-12T10:52:23.448Z,26.88
2018-09-12T10:54:52.475Z,26.83
2018-09-12T10:57:21.888Z,27.10
2018-09-12T10:59:51.248Z,27.08
2018-09-12T11:02:20.776Z,27.22
2018-09-12T11:04:49.761Z,27.24
2018-09-12T11:07:18.778Z,27.49
2018-09-12T11:09:48.250Z,27.05
2018-09-12T11:12:17.388Z,27.23
2018-09-12T11:14:46.672Z,27.17
2018-09-12T11:17:15.962Z,27.18
2018-09-12T11:19:44.968Z,26.85
2018-09-12T11:22:13.951Z,27.35
2018-09-12T11:24:43.067Z,27.57
2018-09-12T11:27:12.120Z,27.36
2018-09-12T11:29:41.284Z,26.91
2018-09-12T11:32:10.758Z,27.33
2018-09-12T11:34:39.871Z,27.52
2018-09-12T11:37:09.692Z,27.65
2018-09-12T11:39:38.723Z,27.86
2018-09-12T11:42:07.861Z,27.75
2018-09-12T11:44:36.931Z,27.57
2018-09-12T11:47:06.069Z,27.38
2018-09-12T11:49:35.222Z,27.25
2018-09-12T11:52:04.357Z,27.11
2018-09-12T11:54:33.663Z,27.45
2018-09-12T11:57:03.006Z,27.96
2018-09-12T11:59:32.067Z,28.29
2018-09-12T12:02:01.303Z,28.02
2018-09-12T12:04:30.374Z,27.80
2018-09-12T12:06:59.444Z,28.24
2018-09-12T12:09:28.671Z,28.28
2018-09-12T12:11:58.143Z,28.30
2018-09-12T12:14:27.423Z,28.33
2018-09-12T12:16:56.643Z,28.41
2018-09-12T12:19:25.643Z,28.31
2018-09-12T12:21:54.637Z,28.59
2018-09-12T12:24:23.647Z,28.20
2018-09-12T12:26:52.631Z,28.69
2018-09-12T12:29:21.686Z,28.53
2018-09-12T12:31:51.732Z,28.50
2018-09-12T12:34:20.906Z,27.57
2018-09-12T12:36:50.171Z,28.25
2018-09-12T12:39:19.171Z,28.03
2018-09-12T12:41:48.325Z,27.98
2018-09-12T12:44:17.816Z,28.27
2018-09-12T12:46:46.895Z,28.70
2018-09-12T12:49:16.134Z,28.62
2018-09-12T12:51:45.384Z,28.11
2018-09-12T12:54:14.615Z,27.84
2018-09-12T12:56:43.631Z,27.58
2018-09-12T12:59:12.652Z,27.24
2018-09-12T13:01:41.723Z,26.93
2018-09-12T13:04:10.780Z,26.85
2018-09-12T13:06:39.934Z,27.00
2018-09-12T13:09:09.464Z,26.86
2018-09-12T13:11:38.705Z,26.95
2018-09-12T13:14:08.150Z,27.05
2018-09-12T13:16:37.184Z,26.82
2018-09-12T13:19:06.370Z,26.89
2018-09-12T13:21:35.519Z,27.10
2018-09-12T13:24:04.468Z,26.73
2018-09-12T13:26:33.610Z,26.67
2018-09-12T13:29:02.909Z,26.65
2018-09-12T13:31:31.991Z,26.86
2018-09-12T13:34:01.162Z,26.96
2018-09-12T13:36:30.189Z,26.95
2018-09-12T13:38:59.190Z,26.61
2018-09-12T13:41:28.196Z,26.58
2018-09-12T13:43:57.224Z,26.68
2018-09-12T13:46:26.279Z,26.32
2018-09-12T13:48:55.304Z,26.06
2018-09-12T13:51:24.515Z,26.07
2018-09-12T13:53:53.550Z,26.30
2018-09-12T13:56:22.839Z,26.27
2018-09-12T13:58:51.839Z,26.01
2018-09-12T14:01:20.839Z,26.41
2018-09-12T14:03:50.054Z,26.84
2018-09-12T14:06:19.063Z,26.96
2018-09-12T14:08:48.110Z,26.98
2018-09-12T14:11:17.158Z,26.77
2018-09-12T14:13:47.595Z,27.08
2018-09-12T14:16:16.822Z,26.94
2018-09-12T14:18:45.801Z,26.11
2018-09-12T14:21:14.799Z,25.82
2018-09-12T14:23:44.782Z,25.89
2018-09-12T14:26:15.443Z,25.82
2018-09-12T14:28:44.489Z,26.06
2018-09-12T14:31:14.792Z,26.04
2018-09-12T14:33:44.040Z,25.72
2018-09-12T14:36:14.565Z,25.52
2018-09-12T14:38:44.032Z,25.47
2018-09-12T14:41:13.212Z,25.38
2018-09-12T14:43:43.494Z,25.52
2018-09-12T14:46:14.285Z,26.13
2018-09-12T14:48:44.539Z,26.00
2018-09-12T14:51:14.966Z,25.67
2018-09-12T14:53:45.242Z,25.71
2018-09-12T14:56:15.467Z,26.29
2018-09-12T14:58:44.519Z,26.02
2018-09-12T15:01:14.086Z,25.78
2018-09-12T15:03:44.700Z,25.48
2018-09-12T15:06:15.480Z,25.64
2018-09-12T15:08:44.584Z,25.22
2018-09-12T15:11:14.764Z,25.16
2018-09-12T15:13:45.390Z,24.91
2018-09-12T15:16:15.252Z,24.51
2018-09-12T15:18:45.420Z,24.65
2018-09-12T15:21:15.140Z,24.50
2018-09-12T15:23:45.657Z,24.45
2018-09-12T15:26:15.025Z,24.42
2018-09-12T15:28:44.627Z,24.39
2018-09-12T15:31:15.219Z,24.15
2018-09-12T15:33:44.922Z,24.07
2018-09-12T15:36:15.206Z,24.04
2018-09-12T15:38:45.025Z,24.05
2018-09-12T15:41:15.067Z,24.03
2018-09-12T15:43:44.798Z,23.94
2018-09-12T15:46:14.803Z,24.15
2018-09-12T15:48:45.117Z,24.22
2018-09-12T15:51:14.435Z,23.67
2018-09-12T15:53:44.045Z,23.62
2018-09-12T15:56:13.678Z,23.49
2018-09-12T15:58:43.750Z,23.60
2018-09-12T16:01:13.815Z,23.39
2018-09-12T16:03:42.880Z,23.81
2018-09-12T16:06:12.175Z,23.69
2018-09-12T16:08:41.238Z,23.35
2018-09-12T16:11:11.802Z,23.41
2018-09-12T16:13:41.128Z,22.67
2018-09-12T16:16:10.263Z,22.46
2018-09-12T16:18:39.541Z,22.22
2018-09-12T16:21:08.908Z,22.08
2018-09-12T16:23:37.957Z,22.09
2018-09-12T16:26:07.032Z,21.89
2018-09-12T16:28:36.261Z,21.92
2018-09-12T16:31:05.276Z,21.84
2018-09-12T16:33:34.277Z,21.69
2018-09-12T16:36:03.305Z,21.44
2018-09-12T16:38:32.338Z,21.52
2018-09-12T16:41:01.561Z,21.50
2018-09-12T16:43:30.825Z,21.51
2018-09-12T16:46:00.135Z,21.62
2018-09-12T16:48:29.272Z,21.79
2018-09-12T16:50:58.351Z,21.00
2018-09-12T16:53:27.398Z,20.82
2018-09-12T16:55:56.597Z,20.67
2018-09-12T16:58:25.633Z,20.79
2018-09-12T17:00:54.771Z,20.40
2018-09-12T17:03:23.802Z,20.70
2018-09-12T17:05:52.902Z,20.55
2018-09-12T17:08:22.588Z,20.51
2018-09-12T17:10:51.772Z,20.87
2018-09-12T17:13:21.746Z,20.91
2018-09-12T17:15:51.661Z,20.60
2018-09-12T17:18:20.970Z,20.19
2018-09-12T17:20:50.032Z,20.30
2018-09-12T17:23:19.310Z,19.91
2018-09-12T17:25:48.774Z,20.18
2018-09-12T17:28:17.782Z,20.50
2018-09-12T17:30:46.807Z,20.58
2018-09-12T17:33:16.517Z,20.36
2018-09-12T17:35:46.393Z,20.08
2018-09-12T17:38:15.706Z,20.37
2018-09-12T17:40:45.804Z,20.53
2018-09-12T17:43:14.833Z,20.66
2018-09-12T17:45:45.153Z,20.07
2018-09-12T17:48:15.099Z,19.52
2018-09-12T17:50:44.699Z,19.32
2018-09-12T17:53:14.688Z,19.39
2018-09-12T17:55:45.217Z,19.48
2018-09-12T17:58:14.649Z,19.10
2018-09-12T18:00:44.624Z,19.51
2018-09-12T18:03:13.785Z,19.63
2018-09-12T18:05:43.659Z,19.23
2018-09-12T18:08:13.662Z,19.40
2018-09-12T18:10:44.372Z,19.36
2018-09-12T18:13:14.228Z,19.33
2018-09-12T18:15:44.327Z,18.88
2018-09-12T18:18:14.188Z,18.55
2018-09-12T18:20:44.071Z,18.59
2018-09-12T18:23:13.632Z,18.47
2018-09-12T18:25:43.912Z,18.57
2018-09-12T18:28:13.897Z,18.71
2018-09-12T18:30:43.410Z,18.65
2018-09-12T18:33:14.400Z,18.93
2018-09-12T18:35:44.182Z,19.37
2018-09-12T18:38:14.342Z,19.40
2018-09-12T18:40:44.474Z,19.37
2018-09-12T18:43:13.763Z,19.24
2018-09-12T18:45:42.984Z,19.03
2018-09-12T18:48:13.364Z,18.86
2018-09-12T18:50:42.822Z,18.82
2018-09-12T18:53:13.115Z,18.71
2018-09-12T18:55:42.797Z,18.58
2018-09-12T18:58:13.296Z,18.86
2018-09-12T19:00:43.268Z,18.40
2018-09-12T19:03:13.274Z,18.54
2018-09-12T19:05:43.629Z,18.48
2018-09-12T19:08:14.889Z,17.81
2018-09-12T19:10:46.313Z,18.15
2018-09-12T19:13:16.159Z,18.54
2018-09-12T19:15:45.217Z,18.57
2018-09-12T19:18:15.891Z,18.06
2018-09-12T19:20:47.174Z,18.33
2018-09-12T19:23:16.367Z,18.48
2018-09-12T19:25:47.087Z,18.21
2018-09-12T19:28:17.773Z,17.87
2018-09-12T19:30:47.678Z,18.05
2018-09-12T19:33:17.444Z,18.27
2018-09-12T19:35:48.147Z,18.11
2018-09-12T19:38:17.323Z,18.27
2018-09-12T19:40:46.641Z,18.23
2018-09-12T19:43:15.794Z,18.18
2018-09-12T19:45:46.000Z,17.92
2018-09-12T19:48:15.056Z,18.37
2018-09-12T19:50:45.925Z,18.00
2018-09-12T19:53:14.959Z,18.23
2018-09-12T19:55:45.617Z,18.34
2018-09-12T19:58:15.864Z,18.16
2018-09-12T20:00:46.637Z,18.10
2018-09-12T20:03:15.949Z,18.11
2018-09-12T20:05:45.319Z,18.27
2018-09-12T20:08:16.004Z,18.22
2018-09-12T20:10:46.076Z,18.51
2018-09-12T20:13:15.107Z,17.93
2018-09-12T20:15:44.495Z,17.98
2018-09-12T20:18:13.536Z,17.87
2018-09-12T20:20:43.050Z,17.42
2018-09-12T20:23:12.352Z,17.95
2018-09-12T20:25:41.411Z,17.63
2018-09-12T20:28:11.117Z,17.71
2018-09-12T20:30:40.112Z,17.91
2018-09-12T20:33:09.177Z,17.89
2018-09-12T20:35:38.257Z,17.81
2018-09-12T20:38:07.318Z,17.98
2018-09-12T20:40:36.340Z,17.92
2018-09-12T20:43:05.668Z,18.38
2018-09-12T20:45:34.788Z,18.27
2018-09-12T20:48:04.162Z,19.10
2018-09-12T20:50:33.697Z,19.07
2018-09-12T20:53:02.843Z,18.67
2018-09-12T20:55:31.859Z,18.28
2018-09-12T20:58:00.901Z,18.11
2018-09-12T21:00:30.203Z,18.34
2018-09-12T21:02:59.579Z,17.76
2018-09-12T21:05:28.684Z,17.99
2018-09-12T21:07:58.039Z,17.42
2018-09-12T21:10:27.106Z,17.85
2018-09-12T21:12:56.121Z,18.02
2018-09-12T21:15:25.425Z,18.15
2018-09-12T21:17:54.459Z,18.10
2018-09-12T21:20:23.604Z,17.54
2018-09-12T21:22:52.618Z,17.87
2018-09-12T21:25:22.218Z,18.05
2018-09-12T21:27:51.230Z,18.05
2018-09-12T21:30:20.282Z,18.71
2018-09-12T21:32:49.421Z,18.95
2018-09-12T21:35:18.556Z,18.38
2018-09-12T21:37:47.601Z,17.73
2018-09-12T21:40:16.637Z,18.10
2018-09-12T21:42:45.837Z,18.43
2018-09-12T21:45:14.927Z,18.02
2018-09-12T21:47:44.159Z,17.47
2018-09-12T21:50:13.175Z,17.77
2018-09-12T21:52:42.380Z,17.60
2018-09-12T21:55:11.383Z,17.92
2018-09-12T21:57:40.435Z,17.78
2018-09-12T22:00:09.490Z,17.62
2018-09-12T22:02:38.612Z,17.52
2018-09-12T22:05:07.881Z,17.39
2018-09-12T22:07:37.223Z,17.20
2018-09-12T22:10:06.480Z,17.73
2018-09-12T22:12:35.639Z,18.49
2018-09-12T22:15:04.927Z,17.81
2018-09-12T22:17:35.031Z,18.04
2018-09-12T22:20:04.747Z,18.41
2018-09-12T22:22:34.100Z,18.47
2018-09-12T22:25:03.118Z,18.85
2018-09-12T22:27:32.231Z,18.45
2018-09-12T22:30:01.451Z,17.78
2018-09-12T22:32:30.551Z,18.01
2018-09-12T22:34:59.629Z,18.33
2018-09-12T22:37:28.700Z,18.17
2018-09-12T22:39:57.811Z,18.53
2018-09-12T22:42:26.812Z,18.75
2018-09-12T22:44:56.302Z,18.77
2018-09-12T22:47:25.328Z,18.40
2018-09-12T22:49:54.360Z,18.75
2018-09-12T22:52:23.664Z,19.14
2018-09-12T22:54:52.941Z,18.84
2018-09-12T22:57:22.023Z,18.75
2018-09-12T22:59:51.440Z,18.88
2018-09-12T23:02:20.511Z,18.75
2018-09-12T23:04:49.553Z,18.33
2018-09-12T23:07:18.641Z,18.56
2018-09-12T23:09:47.892Z,18.53
2018-09-12T23:12:17.105Z,18.96
2018-09-12T23:14:46.378Z,19.03
2018-09-12T23:17:17.298Z,18.83
2018-09-12T23:19:46.848Z,19.04
2018-09-12T23:22:16.101Z,18.70
2018-09-12T23:24:45.290Z,18.80
2018-09-12T23:27:14.294Z,18.66
2018-09-12T23:29:43.606Z,18.56
2018-09-12T23:32:12.619Z,18.80
2018-09-12T23:34:41.632Z,18.65
2018-09-12T23:37:10.707Z,18.65
2018-09-12T23:39:39.699Z,18.89
2018-09-12T23:42:09.027Z,18.94
2018-09-12T23:44:38.028Z,18.70
2018-09-12T23:47:07.080Z,18.51
2018-09-12T23:49:36.534Z,17.89
2018-09-12T23:52:05.615Z,18.12
2018-09-12T23:54:34.636Z,17.81
2018-09-12T23:57:03.898Z,17.76
2018-09-12T23:59:32.927Z,17.57
